Time;durP1;ratioP1;P1;durP2;ratioP2;P2;SDS_P1;SDS_P2;PMS_P1;PMS_P2;Temp;Humidity;BMP_temperature;BMP_pressure;BME280_temperature;BME280_humidity;BME280_pressure;Samples;Min_cycle;Max_cycle;Signal;HPM_P1;HPM_P2
2023/08/30 00:00:18;;;;;;;17.70;15.88;;;;;;;20.84;83.89;99172.06;5087561;28;20545;-68
2023/08/30 00:02:46;;;;;;;21.58;16.25;;;;;;;20.84;84.24;99172.06;5089632;28;20201;-68
2023/08/30 00:05:14;;;;;;;18.38;16.58;;;;;;;20.81;84.47;99178.38;5087639;28;20211;-67
2023/08/30 00:07:42;;;;;;;16.83;15.23;;;;;;;20.80;84.29;99167.97;5098017;28;20588;-67
2023/08/30 00:10:11;;;;;;;19.17;16.35;;;;;;;20.76;84.32;99167.34;5095843;28;20727;-68
2023/08/30 00:12:39;;;;;;;19.48;17.08;;;;;;;20.78;84.74;99162.03;5082547;28;20212;-69
2023/08/30 00:15:09;;;;;;;18.13;16.08;;;;;;;20.78;84.47;99157.63;5087278;28;20651;-69
2023/08/30 00:17:37;;;;;;;21.00;16.73;;;;;;;20.78;84.35;99162.03;5100907;28;20723;-69
2023/08/30 00:20:08;;;;;;;20.02;16.85;;;;;;;20.75;84.15;99177.00;5085734;28;20248;-66
2023/08/30 00:22:36;;;;;;;17.55;15.88;;;;;;;20.71;84.25;99178.13;5090542;28;20226;-67
2023/08/30 00:25:05;;;;;;;18.25;16.38;;;;;;;20.67;84.63;99181.91;5085880;28;20200;-67
2023/08/30 00:27:33;;;;;;;17.40;15.50;;;;;;;20.63;84.44;99183.06;5088944;28;20208;-66
2023/08/30 00:30:01;;;;;;;19.10;17.05;;;;;;;20.60;84.76;99190.28;5087947;28;20209;-67
2023/08/30 00:32:30;;;;;;;18.38;16.48;;;;;;;20.58;84.53;99197.38;5085422;28;20671;-68
2023/08/30 00:34:58;;;;;;;19.05;16.23;;;;;;;20.53;85.03;99195.06;5080424;28;20208;-67
2023/08/30 00:37:26;;;;;;;19.23;16.95;;;;;;;20.45;85.01;99192.09;5086114;28;20228;-67
2023/08/30 00:39:54;;;;;;;21.10;17.48;;;;;;;20.40;85.22;99191.53;5093174;28;20701;-68
2023/08/30 00:42:22;;;;;;;19.23;17.10;;;;;;;20.35;85.69;99196.25;5090494;28;20231;-66
2023/08/30 00:44:53;;;;;;;20.23;16.48;;;;;;;20.39;85.99;99201.16;5087993;28;20225;-68
2023/08/30 00:47:22;;;;;;;19.88;17.77;;;;;;;20.40;86.04;99205.50;5087059;28;20626;-66
2023/08/30 00:49:53;;;;;;;20.85;18.38;;;;;;;20.39;85.92;99205.56;5088024;28;20234;-67
2023/08/30 00:52:22;;;;;;;21.30;18.92;;;;;;;20.36;85.24;99197.91;5089313;28;20296;-68
2023/08/30 00:54:50;;;;;;;23.98;19.77;;;;;;;20.32;85.23;99201.69;5085336;28;20640;-67
2023/08/30 00:57:18;;;;;;;23.85;19.67;;;;;;;20.29;85.55;99207.97;5077534;28;20240;-69
2023/08/30 00:59:46;;;;;;;24.83;21.33;;;;;;;20.26;84.17;99222.06;5092133;28;20643;-68
2023/08/30 01:02:14;;;;;;;26.60;21.55;;;;;;;20.21;84.30;99223.28;5090959;28;20209;-68
2023/08/30 01:04:43;;;;;;;27.85;22.15;;;;;;;20.15;84.53;99229.78;5089112;28;20280;-67
2023/08/30 01:07:12;;;;;;;24.85;20.63;;;;;;;20.12;84.80;99232.59;5089814;28;20244;-68
2023/08/30 01:09:40;;;;;;;25.40;21.73;;;;;;;20.10;84.63;99229.22;5088310;28;20260;-67
2023/08/30 01:12:13;;;;;;;21.88;19.52;;;;;;;20.06;84.02;99242.59;5088686;28;20564;-68
2023/08/30 01:14:46;;;;;;;20.55;18.40;;;;;;;20.04;83.93;99240.09;5088005;28;20289;-68
2023/08/30 01:17:17;;;;;;;21.17;18.65;;;;;;;20.01;83.69;99242.88;5086157;28;20209;-68
2023/08/30 01:19:52;;;;;;;20.50;18.10;;;;;;;20.00;84.03;99249.91;5086412;28;20193;-68
2023/08/30 01:22:30;;;;;;;20.10;17.95;;;;;;;20.04;84.26;99240.09;5083069;28;20303;-68
2023/08/30 01:25:10;;;;;;;19.15;17.25;;;;;;;20.06;83.74;99247.81;5084870;28;20235;-68
2023/08/30 01:27:40;;;;;;;18.98;16.98;;;;;;;20.06;83.50;99238.19;5081201;28;20208;-66
2023/08/30 01:30:11;;;;;;;18.02;16.23;;;;;;;20.03;83.14;99244.47;5083892;28;20204;-68
2023/08/30 01:32:40;;;;;;;18.40;16.65;;;;;;;19.99;82.45;99236.91;5089297;28;20287;-69
2023/08/30 01:35:09;;;;;;;18.50;15.80;;;;;;;19.96;82.43;99232.72;5088744;28;20203;-68
2023/08/30 01:37:38;;;;;;;17.23;15.43;;;;;;;19.92;81.98;99239.09;5085334;28;20286;-70
2023/08/30 01:40:08;;;;;;;17.52;15.65;;;;;;;19.86;82.41;99231.63;5090589;28;20672;-68
2023/08/30 01:42:39;;;;;;;17.15;15.35;;;;;;;19.82;82.36;99239.75;5088321;28;20250;-68
2023/08/30 01:45:08;;;;;;;17.33;15.63;;;;;;;19.76;82.06;99247.03;5090588;28;20648;-67
2023/08/30 01:47:37;;;;;;;17.55;15.68;;;;;;;19.74;82.27;99248.91;5084028;28;20683;-67
2023/08/30 01:50:07;;;;;;;19.92;16.48;;;;;;;19.75;82.64;99253.19;5090193;28;20310;-69
2023/08/30 01:52:36;;;;;;;17.88;15.88;;;;;;;19.74;82.34;99245.47;5086479;28;20196;-67
2023/08/30 01:55:05;;;;;;;19.13;16.13;;;;;;;19.69;82.02;99250.97;5085225;28;20208;-67
2023/08/30 01:57:33;;;;;;;16.42;14.73;;;;;;;19.70;81.90;99247.44;5080859;28;20271;-68
2023/08/30 02:00:04;;;;;;;17.17;15.27;;;;;;;19.67;81.94;99241.56;5086906;28;20682;-69
2023/08/30 02:02:34;;;;;;;17.30;14.80;;;;;;;19.66;82.26;99243.34;5092967;28;20295;-69
2023/08/30 02:05:02;;;;;;;17.70;15.73;;;;;;;19.66;81.81;99239.84;5088771;28;20365;-69
2023/08/30 02:07:37;;;;;;;17.85;15.85;;;;;;;19.63;81.95;99235.69;5090796;28;20196;-68
2023/08/30 02:10:09;;;;;;;18.58;16.73;;;;;;;19.64;81.65;99236.50;5085303;28;20208;-68
2023/08/30 02:12:44;;;;;;;16.73;14.70;;;;;;;19.64;81.73;99234.72;5087621;28;20232;-67
2023/08/30 02:15:15;;;;;;;17.80;15.77;;;;;;;19.64;81.44;99232.13;5086379;28;20193;-68
2023/08/30 02:17:44;;;;;;;17.65;15.77;;;;;;;19.66;81.53;99214.59;5092280;28;20207;-68
2023/08/30 02:20:12;;;;;;;18.13;14.98;;;;;;;19.69;81.56;99213.53;5091530;28;20655;-67
2023/08/30 02:22:40;;;;;;;17.85;15.50;;;;;;;19.66;80.91;99209.34;5080482;28;20231;-69
2023/08/30 02:25:10;;;;;;;17.05;15.02;;;;;;;19.65;81.26;99206.81;5090404;28;20205;-68
2023/08/30 02:27:38;;;;;;;15.98;14.32;;;;;;;19.64;80.95;99195.53;5081172;28;20212;-69
2023/08/30 02:30:08;;;;;;;16.02;14.40;;;;;;;19.65;81.25;99184.13;5090111;28;20307;-69
2023/08/30 02:32:37;;;;;;;17.00;14.93;;;;;;;19.67;80.89;99169.22;5089477;28;20201;-68
2023/08/30 02:35:07;;;;;;;17.15;14.68;;;;;;;19.68;81.00;99167.44;5092006;28;20240;-69
2023/08/30 02:37:34;;;;;;;19.13;14.65;;;;;;;19.66;81.15;99162.31;5082577;28;20230;-67
2023/08/30 02:40:02;;;;;;;15.20;13.60;;;;;;;19.62;80.88;99163.41;5092548;28;20204;-68
2023/08/30 02:42:30;;;;;;;17.08;14.38;;;;;;;19.58;81.13;99159.28;5092497;28;20208;-68
2023/08/30 02:44:58;;;;;;;16.83;14.77;;;;;;;19.57;80.80;99162.84;5083237;28;21199;-67
2023/08/30 02:47:26;;;;;;;17.42;15.23;;;;;;;19.56;80.70;99153.34;5093942;28;20222;-67
2023/08/30 02:49:56;;;;;;;16.70;15.00;;;;;;;19.52;80.82;99131.78;5092996;28;20216;-66
2023/08/30 02:52:24;;;;;;;17.35;14.18;;;;;;;19.53;81.04;99125.63;5086483;28;20229;-68
2023/08/30 02:54:52;;;;;;;16.77;13.90;;;;;;;19.52;81.48;99121.34;5092084;28;20215;-68
2023/08/30 02:57:20;;;;;;;16.73;14.93;;;;;;;19.54;81.18;99129.91;5085900;28;20209;-69
2023/08/30 02:59:48;;;;;;;16.35;14.23;;;;;;;19.50;80.59;99135.41;5088404;28;20242;-68
2023/08/30 03:02:16;;;;;;;18.90;14.80;;;;;;;19.43;80.99;99128.91;5089398;28;20617;-68
2023/08/30 03:04:44;;;;;;;15.88;14.15;;;;;;;19.40;81.74;99119.47;5092337;28;20553;-68
2023/08/30 03:07:13;;;;;;;18.05;15.98;;;;;;;19.36;81.23;99120.59;5082117;28;20200;-68
2023/08/30 03:09:41;;;;;;;18.00;16.08;;;;;;;19.29;81.40;99132.38;5088315;28;20307;-68
2023/08/30 03:12:09;;;;;;;18.48;16.33;;;;;;;19.25;82.06;99133.50;5086938;28;20197;-70
2023/08/30 03:14:37;;;;;;;18.08;16.13;;;;;;;19.23;82.47;99122.31;5089461;28;20197;-68
2023/08/30 03:17:05;;;;;;;17.05;15.27;;;;;;;19.22;82.16;99136.28;5085517;28;20204;-69
2023/08/30 03:19:33;;;;;;;18.73;16.73;;;;;;;19.23;82.55;99133.59;5088212;28;20204;-67
2023/08/30 03:22:01;;;;;;;19.75;17.08;;;;;;;19.26;82.61;99138.63;5090997;28;20660;-68
2023/08/30 03:24:30;;;;;;;18.35;16.38;;;;;;;19.26;82.28;99143.84;5089852;28;20201;-68
2023/08/30 03:26:59;;;;;;;17.48;15.68;;;;;;;19.23;81.71;99149.25;5086619;28;20238;-68
2023/08/30 03:29:27;;;;;;;17.65;15.82;;;;;;;19.22;82.31;99144.13;5092918;28;20691;-68
2023/08/30 03:31:55;;;;;;;19.70;16.42;;;;;;;19.23;82.04;99148.44;5092762;28;20205;-68
2023/08/30 03:34:23;;;;;;;17.83;15.93;;;;;;;19.22;82.14;99147.59;5091548;28;20296;-68
2023/08/30 03:36:54;;;;;;;20.15;16.95;;;;;;;19.21;81.74;99143.28;5087614;28;20235;-67
2023/08/30 03:39:23;;;;;;;18.23;16.05;;;;;;;19.16;82.03;99147.97;5089925;28;20200;-67
2023/08/30 03:41:53;;;;;;;17.15;15.30;;;;;;;19.17;82.10;99154.84;5093337;28;20200;-68
2023/08/30 03:44:20;;;;;;;19.13;15.50;;;;;;;19.15;82.13;99141.06;5089100;28;20356;-67
2023/08/30 03:46:48;;;;;;;18.67;15.48;;;;;;;19.14;82.32;99144.59;5081848;28;20209;-69
2023/08/30 03:49:16;;;;;;;20.88;16.88;;;;;;;19.12;81.86;99151.69;5080073;28;20314;-70
2023/08/30 03:51:44;;;;;;;20.23;17.20;;;;;;;19.06;81.81;99152.91;5093941;28;20266;-70
2023/08/30 03:54:16;;;;;;;18.63;16.30;;;;;;;19.03;82.12;99157.47;5084029;28;20251;-67
2023/08/30 03:56:44;;;;;;;18.70;16.08;;;;;;;19.00;82.41;99141.97;5080740;28;20209;-67
2023/08/30 03:59:13;;;;;;;18.70;16.10;;;;;;;18.99;82.34;99145.53;5090403;28;20245;-68
2023/08/30 04:01:41;;;;;;;18.40;15.95;;;;;;;18.99;82.48;99145.53;5086174;28;20205;-68
2023/08/30 04:04:09;;;;;;;20.13;16.73;;;;;;;19.02;82.56;99153.19;5082603;28;20250;-68
2023/08/30 04:06:37;;;;;;;19.33;17.25;;;;;;;19.04;81.84;99146.94;5084389;28;20679;-67
2023/08/30 04:09:06;;;;;;;19.08;16.38;;;;;;;19.04;81.92;99143.50;5087750;28;20275;-68
2023/08/30 04:11:34;;;;;;;18.23;16.23;;;;;;;19.05;82.04;99147.78;5088708;28;20262;-67
2023/08/30 04:14:03;;;;;;;18.95;16.42;;;;;;;19.05;81.52;99153.00;5089701;28;20201;-68
2023/08/30 04:16:32;;;;;;;21.40;15.73;;;;;;;19.04;81.92;99148.72;5087219;28;20250;-69
2023/08/30 04:19:00;;;;;;;18.63;16.65;;;;;;;19.06;81.91;99157.28;5091261;28;20224;-68
2023/08/30 04:21:28;;;;;;;20.17;17.13;;;;;;;19.05;81.88;99148.63;5087730;28;20605;-69
2023/08/30 04:23:56;;;;;;;17.92;15.50;;;;;;;19.10;81.79;99150.09;5090415;28;20257;-70
2023/08/30 04:26:24;;;;;;;19.85;16.50;;;;;;;19.10;81.78;99143.09;5085124;28;20196;-69
2023/08/30 04:28:52;;;;;;;18.52;15.70;;;;;;;19.10;81.57;99143.09;5090644;28;20218;-72
2023/08/30 04:31:20;;;;;;;19.27;16.40;;;;;;;19.09;81.45;99146.66;5092820;28;20753;-68
2023/08/30 04:33:52;;;;;;;17.98;15.57;;;;;;;19.06;81.82;99149.44;5092512;28;20309;-70
2023/08/30 04:36:20;;;;;;;19.90;15.88;;;;;;;19.04;81.38;99148.72;5089183;28;20619;-69
2023/08/30 04:38:48;;;;;;;19.13;15.52;;;;;;;18.96;81.55;99149.19;5086844;28;20758;-69
2023/08/30 04:41:29;;;;;;;20.55;15.98;;;;;;;18.96;82.20;99153.53;5082136;28;20624;-70
2023/08/30 04:43:57;;;;;;;17.38;15.48;;;;;;;18.98;82.29;99149.91;5099010;28;20223;-69
2023/08/30 04:46:25;;;;;;;18.17;15.80;;;;;;;19.03;82.46;99152.25;5083951;28;20630;-68
2023/08/30 04:48:55;;;;;;;16.92;14.55;;;;;;;19.08;82.34;99152.81;5090026;28;20938;-71
2023/08/30 04:51:23;;;;;;;16.70;14.93;;;;;;;19.04;81.09;99165.22;5085828;28;20585;-68
2023/08/30 04:53:51;;;;;;;16.75;14.27;;;;;;;19.02;81.17;99176.69;5090032;28;20205;-70
2023/08/30 04:56:19;;;;;;;18.20;14.75;;;;;;;19.00;81.50;99181.13;5087455;28;20230;-68
2023/08/30 04:58:47;;;;;;;18.60;15.30;;;;;;;19.01;81.90;99172.41;5089152;28;20204;-68
2023/08/30 05:01:15;;;;;;;17.35;15.10;;;;;;;19.04;81.64;99180.06;5088751;28;20664;-67
2023/08/30 05:03:43;;;;;;;15.43;13.20;;;;;;;19.09;81.46;99185.81;5084568;28;20201;-68
2023/08/30 05:06:16;;;;;;;16.95;14.20;;;;;;;19.12;80.95;99190.88;5089137;28;20648;-69
2023/08/30 05:08:44;;;;;;;19.67;14.82;;;;;;;19.12;80.66;99209.16;5094996;28;20199;-67
2023/08/30 05:11:13;;;;;;;15.85;13.77;;;;;;;19.09;80.55;99209.31;5084225;28;20263;-68
2023/08/30 05:13:40;;;;;;;16.63;14.55;;;;;;;19.07;80.80;99211.19;5092869;28;20214;-69
2023/08/30 05:16:08;;;;;;;16.77;14.32;;;;;;;19.09;81.56;99213.72;5078963;28;20201;-67
2023/08/30 05:18:36;;;;;;;20.17;17.27;;;;;;;19.12;81.45;99219.59;5081810;28;20201;-68
2023/08/30 05:21:05;;;;;;;16.52;12.98;;;;;;;19.16;80.88;99221.09;5085929;28;20197;-69
2023/08/30 05:23:35;;;;;;;18.90;14.88;;;;;;;19.18;80.16;99227.03;5082982;28;20201;-68
2023/08/30 05:26:05;;;;;;;15.02;13.43;;;;;;;19.21;80.60;99223.41;5085656;28;20720;-69
2023/08/30 05:28:33;;;;;;;16.73;13.55;;;;;;;19.24;80.62;99223.22;5083350;28;20198;-70
2023/08/30 05:31:01;;;;;;;15.80;12.85;;;;;;;19.30;80.13;99233.31;5086733;28;20255;-68
2023/08/30 05:33:33;;;;;;;16.90;13.40;;;;;;;19.36;79.81;99242.53;5087736;28;20250;-71
2023/08/30 05:36:02;;;;;;;14.98;12.35;;;;;;;19.39;79.27;99245.81;5090431;28;20205;-69
2023/08/30 05:38:30;;;;;;;15.55;12.52;;;;;;;19.41;79.25;99237.91;5093080;28;20235;-68
2023/08/30 05:40:59;;;;;;;16.45;13.95;;;;;;;19.44;79.03;99240.28;5087637;28;20201;-68
2023/08/30 05:43:27;;;;;;;21.27;12.50;;;;;;;19.40;78.65;99244.88;5087508;28;20262;-69
2023/08/30 05:46:01;;;;;;;14.80;11.65;;;;;;;19.41;79.41;99241.34;5086640;28;20208;-69
2023/08/30 05:48:29;;;;;;;14.30;12.55;;;;;;;19.46;79.31;99241.06;5087652;28;20269;-69
2023/08/30 05:50:57;;;;;;;14.48;12.55;;;;;;;19.51;79.28;99234.63;5094555;28;20251;-70
2023/08/30 05:53:25;;;;;;;14.85;12.63;;;;;;;19.49;78.65;99236.47;5089022;28;20196;-71
2023/08/30 05:55:53;;;;;;;14.77;12.27;;;;;;;19.54;78.66;99241.41;5091476;28;20675;-71
2023/08/30 05:58:23;;;;;;;13.65;12.13;;;;;;;19.57;78.71;99246.47;5097345;28;20677;-68
2023/08/30 06:00:51;;;;;;;13.85;11.70;;;;;;;19.61;78.62;99253.19;5091925;28;20605;-71
2023/08/30 06:03:19;;;;;;;16.30;11.77;;;;;;;19.61;77.74;99258.41;5097559;28;20292;-72
2023/08/30 06:05:48;;;;;;;14.68;13.10;;;;;;;19.57;77.78;99254.31;5087410;28;20204;-70
2023/08/30 06:08:17;;;;;;;14.38;12.38;;;;;;;19.51;77.89;99250.31;5090771;28;20227;-71
2023/08/30 06:10:45;;;;;;;15.27;12.30;;;;;;;19.48;78.12;99249.66;5099402;28;20256;-71
2023/08/30 06:13:13;;;;;;;15.35;12.05;;;;;;;19.47;78.54;99248.78;5095029;28;20212;-71
2023/08/30 06:15:44;;;;;;;13.85;11.52;;;;;;;19.44;78.49;99248.13;5091148;28;20201;-71
2023/08/30 06:18:12;;;;;;;15.23;12.38;;;;;;;19.47;78.86;99245.34;5099767;28;20216;-70
2023/08/30 06:20:42;;;;;;;15.50;13.80;;;;;;;19.51;78.33;99237.25;5097438;28;20291;-70
2023/08/30 06:23:10;;;;;;;16.85;13.35;;;;;;;19.50;78.20;99235.53;5087874;28;20227;-69
2023/08/30 06:25:38;;;;;;;15.77;13.23;;;;;;;19.50;78.27;99242.53;5094348;28;20246;-71
2023/08/30 06:28:06;;;;;;;16.27;13.52;;;;;;;19.47;78.30;99238.34;5094487;28;20216;-70
2023/08/30 06:30:34;;;;;;;16.08;13.15;;;;;;;19.45;78.52;99229.78;5093942;28;20717;-69
2023/08/30 06:33:05;;;;;;;14.90;13.02;;;;;;;19.38;77.32;99232.84;5092162;28;20592;-69
2023/08/30 06:35:39;;;;;;;14.75;13.25;;;;;;;19.28;78.60;99237.78;5093858;28;20232;-68
2023/08/30 06:38:07;;;;;;;16.02;13.82;;;;;;;19.27;78.77;99247.41;5092725;28;20588;-70
2023/08/30 06:40:36;;;;;;;17.15;13.48;;;;;;;19.25;78.79;99246.63;5091014;28;20674;-69
2023/08/30 06:43:04;;;;;;;17.13;14.02;;;;;;;19.27;78.98;99246.56;5091876;28;20652;-67
2023/08/30 06:45:32;;;;;;;18.10;13.68;;;;;;;19.25;78.80;99249.25;5094805;28;20223;-67
2023/08/30 06:48:00;;;;;;;19.00;14.10;;;;;;;19.22;78.95;99252.06;5085072;28;20201;-66
2023/08/30 06:50:31;;;;;;;18.50;14.70;;;;;;;19.21;79.36;99257.38;5091247;28;20197;-70
2023/08/30 06:52:59;;;;;;;19.10;16.20;;;;;;;19.20;79.49;99251.31;5093559;28;20228;-71
2023/08/30 06:55:27;;;;;;;17.45;15.07;;;;;;;19.21;79.80;99250.38;5089661;28;20282;-65
2023/08/30 06:57:57;;;;;;;18.77;15.52;;;;;;;19.21;79.82;99252.97;5087934;28;20283;-66
2023/08/30 07:00:27;;;;;;;23.38;15.45;;;;;;;19.25;80.02;99251.84;5086601;28;20754;-68
2023/08/30 07:02:56;;;;;;;23.85;17.73;;;;;;;19.22;79.94;99241.63;5081001;28;20258;-64
2023/08/30 07:05:27;;;;;;;20.83;17.38;;;;;;;19.19;79.99;99241.81;5086272;28;20233;-71
2023/08/30 07:07:56;;;;;;;22.05;17.35;;;;;;;19.19;79.90;99247.03;5083004;28;20208;-69
2023/08/30 07:10:24;;;;;;;21.52;17.35;;;;;;;19.19;79.98;99256.63;5089674;28;20201;-68
2023/08/30 07:12:52;;;;;;;21.27;16.92;;;;;;;19.18;80.79;99254.94;5090595;28;20238;-67
2023/08/30 07:15:20;;;;;;;22.42;17.63;;;;;;;19.18;80.39;99261.00;5082719;28;20205;-68
2023/08/30 07:17:48;;;;;;;24.95;18.85;;;;;;;19.19;80.49;99262.69;5092585;28;20204;-68
2023/08/30 07:20:22;;;;;;;23.95;18.20;;;;;;;19.19;80.19;99252.25;5093714;28;20203;-68
2023/08/30 07:22:50;;;;;;;20.67;17.83;;;;;;;19.19;80.34;99257.47;5091924;28;20205;-66
2023/08/30 07:25:19;;;;;;;25.10;18.23;;;;;;;19.19;80.67;99262.69;5093283;28;20216;-66
2023/08/30 07:27:47;;;;;;;22.63;18.48;;;;;;;19.15;80.92;99260.34;5092120;28;20208;-68
2023/08/30 07:30:16;;;;;;;23.02;18.40;;;;;;;19.14;80.63;99259.50;5096548;28;20200;-64
2023/08/30 07:32:44;;;;;;;24.80;19.08;;;;;;;19.15;81.28;99257.75;5080545;28;20213;-62
2023/08/30 07:35:12;;;;;;;26.08;19.20;;;;;;;19.19;81.62;99257.47;5093211;28;20605;-67
2023/08/30 07:37:42;;;;;;;24.90;18.50;;;;;;;19.26;81.98;99250.13;5086286;28;20254;-63
2023/08/30 07:40:11;;;;;;;26.63;20.35;;;;;;;19.31;81.28;99246.28;5087337;28;20200;-64
2023/08/30 07:42:40;;;;;;;26.13;19.55;;;;;;;19.36;81.14;99253.00;5088582;28;20254;-67
2023/08/30 07:45:10;;;;;;;26.08;20.70;;;;;;;19.39;82.89;99250.19;5084442;28;20588;-65
2023/08/30 07:47:41;;;;;;;27.83;21.23;;;;;;;19.28;83.55;99256.06;5091106;28;20200;-65
2023/08/30 07:50:09;;;;;;;28.80;22.20;;;;;;;19.16;84.06;99257.66;5097289;28;20317;-70
2023/08/30 07:52:37;;;;;;;27.92;20.25;;;;;;;19.02;83.70;99255.00;5094836;28;20565;-64
2023/08/30 07:55:14;;;;;;;26.48;20.73;;;;;;;18.94;84.34;99258.06;5107704;28;20221;-62
2023/08/30 07:57:43;;;;;;;28.73;22.75;;;;;;;18.88;84.37;99263.63;5096194;28;20238;-64
2023/08/30 08:00:12;;;;;;;29.83;22.10;;;;;;;18.77;85.03;99260.81;5094619;28;20568;-67
2023/08/30 08:02:41;;;;;;;29.17;22.13;;;;;;;18.70;85.28;99270.72;5100209;28;20207;-61
2023/08/30 08:05:09;;;;;;;29.83;20.85;;;;;;;18.69;85.51;99268.22;5091171;28;20262;-67
2023/08/30 08:07:40;;;;;;;31.23;22.27;;;;;;;18.69;86.29;99269.06;5085017;28;20251;-65
2023/08/30 08:10:09;;;;;;;28.02;22.15;;;;;;;18.71;86.05;99267.25;5084312;28;20672;-64
2023/08/30 08:12:37;;;;;;;28.40;21.17;;;;;;;18.73;86.42;99270.59;5081992;28;20209;-65
2023/08/30 08:15:08;;;;;;;27.08;20.48;;;;;;;18.74;86.16;99267.06;5084500;28;20204;-65
2023/08/30 08:17:35;;;;;;;26.30;20.33;;;;;;;18.74;86.39;99261.84;5084214;28;20242;-63
2023/08/30 08:20:06;;;;;;;24.90;18.60;;;;;;;18.73;86.51;99252.31;5082018;28;20559;-65
2023/08/30 08:22:34;;;;;;;26.95;21.50;;;;;;;18.74;86.50;99260.97;5083529;28;20648;-64
2023/08/30 08:25:02;;;;;;;22.63;19.00;;;;;;;18.75;86.36;99257.47;5087158;28;20205;-66
2023/08/30 08:27:31;;;;;;;25.73;19.48;;;;;;;18.76;86.84;99259.97;5085270;28;20197;-65
2023/08/30 08:29:59;;;;;;;23.65;18.08;;;;;;;18.81;86.11;99252.75;5086044;28;20688;-65
2023/08/30 08:32:29;;;;;;;19.10;16.85;;;;;;;18.87;85.87;99248.09;5100394;28;20706;-63
2023/08/30 08:34:57;;;;;;;22.30;17.63;;;;;;;18.91;85.73;99241.75;5092621;28;20677;-67
2023/08/30 08:37:25;;;;;;;20.02;16.40;;;;;;;18.92;85.81;99239.03;5098598;28;20640;-62
2023/08/30 08:39:53;;;;;;;20.95;15.65;;;;;;;18.97;85.58;99244.00;5096760;28;20236;-64
2023/08/30 08:42:21;;;;;;;20.50;16.27;;;;;;;18.98;85.51;99245.69;5095109;28;21008;-66
2023/08/30 08:44:52;;;;;;;19.10;15.38;;;;;;;19.02;85.38;99247.16;5105120;28;20204;-65
2023/08/30 08:47:22;;;;;;;17.95;14.80;;;;;;;19.04;85.46;99242.72;5087725;28;20212;-66
2023/08/30 08:49:52;;;;;;;15.48;13.88;;;;;;;19.08;85.37;99241.59;5082823;28;20217;-63
2023/08/30 08:52:20;;;;;;;16.95;14.32;;;;;;;19.09;85.10;99235.44;5083438;28;20283;-64
2023/08/30 08:54:59;;;;;;;17.70;12.93;;;;;;;19.12;85.15;99237.03;5084605;28;20208;-63
2023/08/30 08:57:29;;;;;;;13.77;11.25;;;;;;;19.12;84.67;99237.88;5084098;28;20208;-67
2023/08/30 08:59:57;;;;;;;12.38;10.10;;;;;;;19.14;84.58;99243.81;5087238;28;20216;-65
2023/08/30 09:02:26;;;;;;;12.63;9.88;;;;;;;19.17;84.64;99243.66;5089634;28;20679;-71
2023/08/30 09:04:58;;;;;;;12.45;9.10;;;;;;;19.15;84.13;99245.53;5086985;28;20210;-63
2023/08/30 09:07:28;;;;;;;9.43;7.80;;;;;;;19.13;83.84;99241.31;5084390;28;20692;-66
2023/08/30 09:09:56;;;;;;;9.27;7.88;;;;;;;19.10;84.07;99231.06;5084792;28;20197;-63
2023/08/30 09:12:24;;;;;;;8.65;7.55;;;;;;;19.13;84.34;99234.31;5079032;28;20229;-66
2023/08/30 09:14:56;;;;;;;7.70;6.95;;;;;;;19.16;83.95;99230.69;5079154;28;20210;-61
2023/08/30 09:17:24;;;;;;;9.75;8.02;;;;;;;19.18;83.50;99234.03;5080563;28;20231;-62
2023/08/30 09:19:52;;;;;;;7.93;7.13;;;;;;;19.14;82.88;99236.00;5080089;28;20196;-67
2023/08/30 09:22:22;;;;;;;9.90;7.07;;;;;;;19.08;82.77;99232.94;5081787;28;20204;-70
2023/08/30 09:24:50;;;;;;;8.40;7.50;;;;;;;19.03;83.77;99236.63;5077236;28;20215;-63
2023/08/30 09:27:19;;;;;;;7.75;6.95;;;;;;;19.06;83.42;99238.22;5078575;28;20200;-64
2023/08/30 09:29:47;;;;;;;7.55;6.85;;;;;;;19.09;83.58;99245.03;5079266;28;22103;-64
2023/08/30 09:32:22;;;;;;;6.95;6.25;;;;;;;19.05;83.15;99247.84;5085468;28;20239;-64
2023/08/30 09:34:50;;;;;;;8.82;6.75;;;;;;;19.02;83.16;99250.63;5082109;28;20742;-64
2023/08/30 09:37:26;;;;;;;7.95;6.38;;;;;;;18.96;82.77;99242.31;5083798;28;20253;-63
2023/08/30 09:39:54;;;;;;;7.38;6.35;;;;;;;18.92;82.43;99244.25;5082175;28;20259;-63
2023/08/30 09:42:23;;;;;;;9.27;6.93;;;;;;;18.91;83.97;99246.97;5082887;28;20240;-63
2023/08/30 09:44:51;;;;;;;7.88;6.13;;;;;;;18.92;83.94;99243.41;5082359;28;20208;-63
2023/08/30 09:47:20;;;;;;;7.72;5.53;;;;;;;18.90;83.56;99238.31;5082026;28;20224;-63
2023/08/30 09:49:50;;;;;;;6.28;5.75;;;;;;;18.90;83.45;99242.69;5078048;28;20208;-64
2023/08/30 09:52:21;;;;;;;7.82;6.57;;;;;;;18.88;83.50;99240.16;5075517;28;20274;-63
2023/08/30 09:54:52;;;;;;;7.32;5.97;;;;;;;18.87;83.55;99248.91;5077074;28;20663;-64
2023/08/30 09:57:22;;;;;;;6.72;6.03;;;;;;;18.83;83.29;99253.47;5075440;28;20252;-68
2023/08/30 09:59:51;;;;;;;8.60;5.95;;;;;;;18.83;83.64;99244.81;5067674;28;20255;-64
2023/08/30 10:02:19;;;;;;;7.97;6.57;;;;;;;18.87;84.03;99245.47;5068554;28;20303;-66
2023/08/30 10:04:49;;;;;;;7.20;6.38;;;;;;;18.91;83.85;99254.78;5070605;28;20201;-68
2023/08/30 10:07:19;;;;;;;7.68;6.68;;;;;;;18.97;83.45;99257.06;5070965;28;20223;-67
2023/08/30 10:09:48;;;;;;;7.63;6.82;;;;;;;19.02;83.52;99261.06;5074250;28;20313;-62
2023/08/30 10:12:40;;;;;;;9.02;7.05;;;;;;;19.11;83.31;99264.06;5078418;28;20213;-64
2023/08/30 10:15:10;;;;;;;7.70;6.93;;;;;;;19.17;82.96;99251.47;5080804;28;20209;-65
2023/08/30 10:17:41;;;;;;;7.25;6.53;;;;;;;19.19;82.59;99256.63;5083716;28;20299;-65
2023/08/30 10:20:11;;;;;;;9.82;7.22;;;;;;;19.16;82.18;99255.03;5085407;28;20277;-64
2023/08/30 10:22:42;;;;;;;8.15;7.20;;;;;;;19.18;82.37;99249.72;5087054;28;20737;-62
2023/08/30 10:25:16;;;;;;;7.88;7.07;;;;;;;19.21;82.59;99247.75;5081708;28;20200;-64
2023/08/30 10:27:48;;;;;;;7.22;6.53;;;;;;;19.25;82.48;99236.19;5084136;28;20257;-66
2023/08/30 10:30:19;;;;;;;7.47;6.72;;;;;;;19.27;82.30;99231.72;5085426;28;20269;-62
2023/08/30 10:32:47;;;;;;;7.40;6.45;;;;;;;19.26;82.11;99226.59;5084656;28;20223;-62
2023/08/30 10:35:16;;;;;;;8.30;7.50;;;;;;;19.22;81.99;99230.31;5087151;28;20208;-62
2023/08/30 10:37:55;;;;;;;11.15;6.18;;;;;;;19.15;82.25;99226.41;5078288;28;20197;-64
2023/08/30 10:40:23;;;;;;;7.18;6.47;;;;;;;19.14;82.58;99229.94;5047405;28;20212;-62
2023/08/30 10:43:03;;;;;;;6.70;6.00;;;;;;;19.12;83.16;99229.19;5043414;28;20691;-63
2023/08/30 10:45:31;;;;;;;7.18;6.30;;;;;;;19.13;83.06;99223.88;5049002;28;20198;-64
2023/08/30 10:48:00;;;;;;;6.55;5.72;;;;;;;19.13;82.95;99231.72;5050060;28;20297;-61
2023/08/30 10:50:31;;;;;;;7.53;6.45;;;;;;;19.13;82.89;99226.50;5051400;28;20209;-63
2023/08/30 10:53:00;;;;;;;6.38;5.57;;;;;;;19.12;82.38;99234.44;5052826;28;20664;-61
2023/08/30 10:55:28;;;;;;;6.45;5.57;;;;;;;19.10;83.21;99231.88;5060505;28;20206;-63
2023/08/30 10:58:02;;;;;;;6.85;6.10;;;;;;;19.08;82.60;99230.31;5051592;28;20205;-63
2023/08/30 11:00:32;;;;;;;7.47;6.68;;;;;;;19.13;83.35;99234.31;5059982;28;20197;-65
2023/08/30 11:03:00;;;;;;;8.40;7.60;;;;;;;19.17;82.71;99238.44;5058189;28;20212;-63
2023/08/30 11:05:28;;;;;;;6.53;5.93;;;;;;;19.15;82.64;99240.31;5055988;28;20777;-63
2023/08/30 11:07:56;;;;;;;5.35;4.82;;;;;;;19.09;83.22;99240.66;5050602;28;20210;-65
2023/08/30 11:10:25;;;;;;;8.18;5.07;;;;;;;19.10;83.95;99247.56;5052601;28;20198;-62
2023/08/30 11:12:53;;;;;;;5.85;5.32;;;;;;;19.12;83.52;99245.72;5054579;28;20198;-64
2023/08/30 11:15:22;;;;;;;5.43;4.88;;;;;;;19.14;83.38;99245.59;5051796;28;20241;-63
2023/08/30 11:17:50;;;;;;;4.72;4.32;;;;;;;19.12;83.10;99255.31;5052746;28;20214;-61
2023/08/30 11:20:19;;;;;;;4.97;4.25;;;;;;;19.08;83.04;99254.66;5052939;28;20244;-63
2023/08/30 11:22:49;;;;;;;5.20;4.43;;;;;;;19.05;83.40;99250.44;5050497;28;20205;-64
2023/08/30 11:25:17;;;;;;;4.82;4.43;;;;;;;19.09;83.60;99256.31;5051168;28;20556;-63
2023/08/30 11:27:45;;;;;;;4.38;3.97;;;;;;;19.17;83.43;99251.47;5049037;28;20204;-61